createdAt,value
2018-10-04T00:01:44.303Z,2.93
2018-10-04T00:04:11.869Z,2.43
2018-10-04T00:06:39.479Z,2.30
2018-10-04T00:09:07.471Z,2.30
2018-10-04T00:11:35.355Z,2.13
2018-10-04T00:14:02.940Z,2.83
2018-10-04T00:16:30.563Z,3.10
2018-10-04T00:18:58.155Z,4.77
2018-10-04T00:21:25.764Z,2.63
2018-10-04T00:23:53.653Z,2.10
2018-10-04T00:26:21.242Z,2.40
2018-10-04T00:28:48.827Z,2.60
2018-10-04T00:31:16.603Z,2.17
2018-10-04T00:33:44.188Z,1.90
2018-10-04T00:36:11.829Z,1.50
2018-10-04T00:38:39.429Z,1.93
2018-10-04T00:41:07.053Z,4.13
2018-10-04T00:43:34.633Z,2.53
2018-10-04T00:46:02.325Z,3.93
2018-10-04T00:48:29.849Z,3.00
2018-10-04T00:50:57.429Z,1.77
2018-10-04T00:53:25.023Z,2.50
2018-10-04T00:55:53.485Z,3.03
2018-10-04T00:58:21.169Z,4.80
2018-10-04T01:00:48.795Z,3.00
2018-10-04T01:03:16.352Z,4.60
2018-10-04T01:05:44.232Z,2.47
2018-10-04T01:08:11.778Z,3.43
2018-10-04T01:10:39.383Z,2.30
2018-10-04T01:13:06.971Z,11.23
2018-10-04T01:15:34.663Z,5.30
2018-10-04T01:18:13.722Z,4.70
2018-10-04T01:20:41.291Z,4.70
2018-10-04T01:23:09.623Z,3.53
2018-10-04T01:25:37.287Z,3.37
2018-10-04T01:28:05.154Z,2.90
2018-10-04T01:30:32.768Z,2.73
2018-10-04T01:33:00.868Z,3.20
2018-10-04T01:35:29.047Z,3.47
2018-10-04T01:37:56.648Z,8.67
2018-10-04T01:40:24.749Z,4.50
2018-10-04T01:42:52.455Z,4.33
2018-10-04T01:45:19.982Z,12.70
2018-10-04T01:47:47.794Z,17.07
2018-10-04T01:50:15.367Z,12.27
2018-10-04T01:52:43.574Z,10.83
2018-10-04T01:55:11.128Z,9.43
2018-10-04T01:57:38.806Z,12.83
2018-10-04T02:00:06.508Z,12.10
2018-10-04T02:02:34.069Z,9.83
2018-10-04T02:05:01.655Z,12.83
2018-10-04T02:07:29.339Z,16.87
2018-10-04T02:09:56.992Z,26.73
2018-10-04T02:12:24.506Z,18.87
2018-10-04T02:14:52.079Z,15.17
2018-10-04T02:17:19.619Z,17.23
2018-10-04T02:19:47.388Z,23.60
2018-10-04T02:22:15.026Z,23.33
2018-10-04T02:24:43.366Z,21.23
2018-10-04T02:27:10.937Z,22.20
2018-10-04T02:29:38.497Z,17.23
2018-10-04T02:32:06.062Z,15.70
2018-10-04T02:34:33.624Z,13.20
2018-10-04T02:37:01.179Z,10.80
2018-10-04T02:39:28.723Z,9.23
2018-10-04T02:41:56.342Z,6.30
2018-10-04T02:44:23.875Z,5.57
2018-10-04T02:46:51.597Z,7.57
2018-10-04T02:49:19.153Z,4.40
2018-10-04T02:51:47.043Z,7.47
2018-10-04T02:54:20.396Z,8.37
2018-10-04T02:56:57.315Z,8.03
2018-10-04T02:59:25.599Z,7.90
2018-10-04T03:01:53.517Z,5.47
2018-10-04T03:04:24.936Z,5.47
2018-10-04T03:06:52.634Z,9.07
2018-10-04T03:09:20.230Z,4.30
2018-10-04T03:11:47.889Z,4.87
2018-10-04T03:14:15.880Z,5.23
2018-10-04T03:16:47.384Z,5.63
2018-10-04T03:19:15.527Z,4.77
2018-10-04T03:21:44.513Z,4.37
2018-10-04T03:24:12.425Z,6.90
2018-10-04T03:26:42.601Z,4.87
2018-10-04T03:29:10.396Z,3.57
2018-10-04T03:31:38.359Z,3.90
2018-10-04T03:34:06.246Z,3.87
2018-10-04T03:36:34.215Z,3.67
2018-10-04T03:39:02.870Z,2.47
2018-10-04T03:41:31.666Z,5.93
2018-10-04T03:43:59.684Z,2.93
2018-10-04T03:46:29.654Z,2.57
2018-10-04T03:48:57.499Z,3.90
2018-10-04T03:51:25.548Z,3.43
2018-10-04T03:53:54.047Z,3.17
2018-10-04T03:56:21.914Z,2.47
2018-10-04T03:58:49.648Z,2.13
2018-10-04T04:01:17.854Z,3.07
2018-10-04T04:03:45.775Z,3.77
2018-10-04T04:06:13.672Z,2.17
2018-10-04T04:08:42.151Z,3.27
2018-10-04T04:11:09.835Z,2.57
2018-10-04T04:13:37.703Z,2.57
2018-10-04T04:16:05.498Z,4.57
2018-10-04T04:18:33.658Z,2.93
2018-10-04T04:21:01.523Z,2.93
2018-10-04T04:23:29.269Z,2.17
2018-10-04T04:25:57.010Z,3.40
2018-10-04T04:28:24.645Z,3.43
2018-10-04T04:30:52.361Z,2.73
2018-10-04T04:33:20.118Z,2.50
2018-10-04T04:35:47.761Z,3.33
2018-10-04T04:38:15.530Z,3.13
2018-10-04T04:40:43.963Z,2.60
2018-10-04T04:43:11.678Z,2.90
2018-10-04T04:45:39.471Z,2.90
2018-10-04T04:48:07.254Z,12.07
2018-10-04T04:50:34.980Z,2.70
2018-10-04T04:53:12.911Z,5.90
2018-10-04T04:55:52.782Z,2.60
2018-10-04T04:58:22.062Z,2.90
2018-10-04T05:00:50.870Z,3.33
2018-10-04T05:03:19.797Z,2.97
2018-10-04T05:05:48.775Z,3.10
2018-10-04T05:08:17.422Z,2.40
2018-10-04T05:10:46.163Z,2.23
2018-10-04T05:13:15.114Z,2.53
2018-10-04T05:15:43.318Z,3.70
2018-10-04T05:18:10.995Z,2.63
2018-10-04T05:20:38.850Z,2.40
2018-10-04T05:23:06.615Z,3.40
2018-10-04T05:25:34.421Z,2.97
2018-10-04T05:28:02.221Z,2.70
2018-10-04T05:30:30.035Z,3.80
2018-10-04T05:32:57.696Z,4.37
2018-10-04T05:35:25.544Z,3.80
2018-10-04T05:37:53.716Z,3.00
2018-10-04T05:40:21.422Z,4.43
2018-10-04T05:42:49.222Z,3.20
2018-10-04T05:45:17.150Z,2.70
2018-10-04T05:47:44.909Z,3.30
2018-10-04T05:50:12.776Z,2.67
2018-10-04T05:52:42.502Z,7.83
2018-10-04T05:55:10.470Z,5.60
2018-10-04T05:57:38.304Z,5.17
2018-10-04T06:00:19.187Z,4.97
2018-10-04T06:02:46.783Z,3.43
2018-10-04T06:05:14.530Z,3.60
2018-10-04T06:07:43.047Z,2.47
2018-10-04T06:10:10.692Z,2.17
2018-10-04T06:12:38.354Z,2.37
2018-10-04T06:15:06.090Z,3.00
2018-10-04T06:17:34.139Z,2.13
2018-10-04T06:20:01.779Z,3.40
2018-10-04T06:22:29.854Z,2.23
2018-10-04T06:24:57.662Z,2.20
2018-10-04T06:27:25.238Z,2.83
2018-10-04T06:29:52.866Z,2.67
2018-10-04T06:32:20.447Z,2.87
2018-10-04T06:34:48.045Z,2.20
2018-10-04T06:37:15.831Z,3.27
2018-10-04T06:39:44.358Z,8.23
2018-10-04T06:42:11.914Z,2.70
2018-10-04T06:44:39.471Z,4.63
2018-10-04T06:47:07.098Z,6.03
2018-10-04T06:49:34.703Z,11.87
2018-10-04T06:52:02.240Z,5.80
2018-10-04T06:54:30.296Z,10.47
2018-10-04T06:56:57.899Z,11.47
2018-10-04T06:59:25.491Z,16.90
2018-10-04T07:01:53.233Z,12.30
2018-10-04T07:04:20.930Z,12.33
2018-10-04T07:06:48.483Z,11.30
2018-10-04T07:09:16.005Z,9.10
2018-10-04T07:11:44.477Z,12.37
2018-10-04T07:14:12.442Z,10.40
2018-10-04T07:16:40.017Z,8.07
2018-10-04T07:19:07.611Z,8.77
2018-10-04T07:21:35.158Z,9.10
2018-10-04T07:24:02.713Z,9.53
2018-10-04T07:26:30.978Z,10.17
2018-10-04T07:28:58.543Z,5.87
2018-10-04T07:31:26.187Z,11.63
2018-10-04T07:33:53.967Z,12.63
2018-10-04T07:36:21.591Z,12.77
2018-10-04T07:38:49.305Z,12.53
2018-10-04T07:41:16.919Z,12.20
2018-10-04T07:43:44.803Z,8.17
2018-10-04T07:46:12.359Z,12.53
2018-10-04T07:48:39.895Z,12.60
2018-10-04T07:51:07.482Z,12.60
2018-10-04T07:53:35.032Z,11.97
2018-10-04T07:56:02.725Z,12.63
2018-10-04T07:58:30.625Z,13.23
2018-10-04T08:00:58.662Z,8.57
2018-10-04T08:03:26.236Z,21.00
2018-10-04T08:05:54.049Z,24.50
2018-10-04T08:08:21.818Z,12.17
2018-10-04T08:10:49.464Z,10.70
2018-10-04T08:13:17.001Z,10.20
2018-10-04T08:15:44.755Z,11.20
2018-10-04T08:18:12.326Z,9.20
2018-10-04T08:20:39.949Z,8.87
2018-10-04T08:23:07.568Z,12.73
2018-10-04T08:25:35.163Z,12.60
2018-10-04T08:28:02.699Z,9.77
2018-10-04T08:30:30.343Z,10.23
2018-10-04T08:32:59.205Z,9.73
2018-10-04T08:35:26.933Z,10.63
2018-10-04T08:37:54.701Z,8.13
2018-10-04T08:40:22.431Z,9.63
2018-10-04T08:42:50.005Z,7.03
2018-10-04T08:45:17.592Z,11.77
2018-10-04T08:47:45.222Z,13.73
2018-10-04T08:50:12.883Z,7.23
2018-10-04T08:52:46.125Z,10.50
2018-10-04T08:55:19.577Z,13.47
2018-10-04T08:57:47.201Z,7.50
2018-10-04T09:00:14.998Z,9.07
2018-10-04T09:02:43.170Z,12.57
2018-10-04T09:05:11.752Z,11.47
2018-10-04T09:07:39.431Z,12.47
2018-10-04T09:10:07.080Z,9.17
2018-10-04T09:12:34.714Z,10.77
2018-10-04T09:15:02.788Z,11.47
2018-10-04T09:17:30.355Z,9.27
2018-10-04T09:19:58.095Z,9.57
2018-10-04T09:22:25.718Z,13.07
2018-10-04T09:24:53.282Z,10.87
2018-10-04T09:27:21.108Z,13.43
2018-10-04T09:29:54.398Z,7.60
2018-10-04T09:32:21.983Z,11.87
2018-10-04T09:34:49.728Z,17.07
2018-10-04T09:37:17.308Z,10.93
2018-10-04T09:39:44.883Z,9.63
2018-10-04T09:42:13.654Z,10.60
2018-10-04T09:44:41.396Z,12.77
2018-10-04T09:47:14.784Z,10.70
2018-10-04T09:49:43.291Z,9.50
2018-10-04T09:52:11.871Z,9.63
2018-10-04T09:54:45.178Z,10.00
2018-10-04T09:57:18.596Z,11.90
2018-10-04T09:59:56.275Z,11.40
2018-10-04T10:02:28.375Z,12.15
2018-10-04T10:04:56.052Z,10.35
2018-10-04T10:07:23.720Z,8.95
2018-10-04T10:09:53.343Z,11.95
2018-10-04T10:12:20.977Z,12.80
2018-10-04T10:14:48.812Z,7.72
2018-10-04T10:17:18.027Z,11.90
2018-10-04T10:19:47.208Z,11.30
2018-10-04T10:22:16.389Z,11.90
2018-10-04T10:24:45.670Z,8.73
2018-10-04T10:27:15.479Z,10.00
2018-10-04T10:29:44.220Z,10.25
2018-10-04T10:32:11.783Z,10.82
2018-10-04T10:34:39.366Z,9.58
2018-10-04T10:37:06.892Z,13.15
2018-10-04T10:39:35.743Z,8.05
2018-10-04T10:42:03.570Z,13.18
2018-10-04T10:44:31.233Z,14.87
2018-10-04T10:46:58.860Z,12.30
2018-10-04T10:49:26.692Z,11.75
2018-10-04T10:52:06.019Z,13.65
2018-10-04T10:54:38.455Z,10.55
2018-10-04T10:57:07.498Z,16.12
2018-10-04T10:59:37.515Z,13.60
2018-10-04T11:02:06.186Z,11.28
2018-10-04T11:04:34.401Z,12.28
2018-10-04T11:07:01.939Z,8.58
2018-10-04T11:09:29.684Z,15.95
2018-10-04T11:11:57.283Z,11.73
2018-10-04T11:14:28.274Z,9.80
2018-10-04T11:17:00.725Z,10.63
2018-10-04T11:19:28.446Z,11.75
2018-10-04T11:21:56.096Z,10.68
2018-10-04T11:24:23.726Z,11.30
2018-10-04T11:26:51.258Z,15.45
2018-10-04T11:29:19.156Z,13.30
2018-10-04T11:31:46.767Z,9.85
2018-10-04T11:34:14.487Z,9.05
2018-10-04T11:36:43.763Z,8.23
2018-10-04T11:39:11.517Z,10.68
2018-10-04T11:41:40.251Z,9.93
2018-10-04T11:44:16.708Z,14.50
2018-10-04T11:46:46.457Z,9.78
2018-10-04T11:49:14.194Z,10.33
2018-10-04T11:51:41.795Z,8.33
2018-10-04T11:54:10.477Z,9.65
2018-10-04T11:56:38.313Z,8.40
2018-10-04T11:59:05.877Z,13.58
2018-10-04T12:01:33.788Z,11.88
2018-10-04T12:04:01.634Z,11.97
2018-10-04T12:06:29.503Z,8.13
2018-10-04T12:08:57.319Z,9.08
2018-10-04T12:11:24.976Z,9.08
2018-10-04T12:13:52.919Z,7.45
2018-10-04T12:16:20.506Z,10.10
2018-10-04T12:18:48.200Z,9.98
2018-10-04T12:21:15.626Z,8.15
2018-10-04T12:23:43.863Z,12.78
2018-10-04T12:26:11.427Z,9.93
2018-10-04T12:28:39.006Z,9.63
2018-10-04T12:31:07.143Z,8.88
2018-10-04T12:33:34.838Z,6.75
2018-10-04T12:36:02.682Z,8.38
2018-10-04T12:38:30.435Z,6.97
2018-10-04T12:40:57.963Z,7.28
2018-10-04T12:43:25.702Z,9.40
2018-10-04T12:45:53.288Z,5.83
2018-10-04T12:48:21.091Z,5.42
2018-10-04T12:50:48.741Z,4.80
2018-10-04T12:53:18.589Z,14.03
2018-10-04T12:55:46.198Z,5.65
2018-10-04T12:58:13.980Z,7.47
2018-10-04T13:00:41.787Z,8.53
2018-10-04T13:03:09.336Z,9.53
2018-10-04T13:05:37.551Z,8.93
2018-10-04T13:08:05.143Z,5.77
2018-10-04T13:10:32.981Z,7.97
2018-10-04T13:13:00.554Z,7.37
2018-10-04T13:15:28.450Z,7.83
2018-10-04T13:17:56.181Z,8.88
2018-10-04T13:20:23.966Z,7.03
2018-10-04T13:22:51.907Z,5.97
2018-10-04T13:25:19.893Z,8.33
2018-10-04T13:27:47.991Z,6.25
2018-10-04T13:30:15.603Z,5.92
2018-10-04T13:32:44.282Z,5.93
2018-10-04T13:35:12.207Z,6.07
2018-10-04T13:37:40.921Z,6.70
2018-10-04T13:40:08.547Z,4.75
2018-10-04T13:42:36.616Z,10.08
2018-10-04T13:45:04.824Z,5.93
2018-10-04T13:47:32.557Z,5.17
2018-10-04T13:50:00.503Z,6.53
2018-10-04T13:52:28.329Z,9.63
2018-10-04T13:54:56.076Z,8.57
2018-10-04T13:57:24.842Z,5.57
2018-10-04T13:59:53.544Z,5.63
2018-10-04T14:02:25.746Z,6.63
2018-10-04T14:04:56.642Z,5.50
2018-10-04T14:07:26.394Z,5.63
2018-10-04T14:09:58.868Z,4.80
2018-10-04T14:12:26.511Z,9.63
2018-10-04T14:14:59.427Z,10.37
2018-10-04T14:17:29.239Z,5.07
2018-10-04T14:19:58.966Z,6.37
2018-10-04T14:22:28.724Z,6.63
2018-10-04T14:24:56.374Z,5.93
2018-10-04T14:27:24.099Z,7.17
2018-10-04T14:29:51.816Z,5.60
2018-10-04T14:32:19.509Z,6.87
2018-10-04T14:34:47.182Z,5.60
2018-10-04T14:37:14.712Z,5.03
2018-10-04T14:39:43.207Z,9.20
2018-10-04T14:42:10.839Z,9.83
2018-10-04T14:44:38.711Z,9.37
2018-10-04T14:47:06.308Z,6.77
2018-10-04T14:49:34.198Z,5.83
2018-10-04T14:52:03.005Z,8.20
2018-10-04T14:54:30.556Z,6.33
2018-10-04T14:56:58.216Z,6.80
2018-10-04T14:59:25.804Z,7.60
2018-10-04T15:01:53.347Z,9.37
2018-10-04T15:04:20.938Z,7.80
2018-10-04T15:06:48.479Z,8.93
2018-10-04T15:09:16.148Z,6.57
2018-10-04T15:11:44.836Z,5.07
2018-10-04T15:14:12.433Z,3.97
2018-10-04T15:16:40.197Z,4.13
2018-10-04T15:19:07.831Z,7.63
2018-10-04T15:21:35.436Z,4.47
2018-10-04T15:24:03.126Z,4.80
2018-10-04T15:26:30.772Z,6.07
2018-10-04T15:29:00.393Z,9.07
2018-10-04T15:31:28.146Z,7.23
2018-10-04T15:33:57.759Z,7.00
2018-10-04T15:36:25.364Z,5.80
2018-10-04T15:38:52.959Z,13.03
2018-10-04T15:41:20.515Z,8.10
2018-10-04T15:43:48.145Z,7.30
2018-10-04T15:46:17.837Z,5.47
2018-10-04T15:48:45.718Z,8.13
2018-10-04T15:51:13.487Z,7.53
2018-10-04T15:53:45.264Z,12.10
2018-10-04T15:56:12.993Z,8.87
2018-10-04T15:58:40.676Z,9.87
2018-10-04T16:01:31.359Z,13.97
2018-10-04T16:03:59.064Z,12.27
2018-10-04T16:06:26.752Z,6.67
2018-10-04T16:08:57.788Z,7.93
2018-10-04T16:11:26.710Z,6.97
2018-10-04T16:13:57.927Z,14.27
2018-10-04T16:16:27.702Z,11.33
2018-10-04T16:18:56.480Z,12.17
2018-10-04T16:21:28.948Z,14.63
2018-10-04T16:23:58.638Z,9.97
2018-10-04T16:26:26.352Z,7.47
2018-10-04T16:28:53.986Z,9.87
2018-10-04T16:31:22.668Z,8.60
2018-10-04T16:33:50.539Z,7.77
2018-10-04T16:36:20.203Z,5.83
2018-10-04T16:38:47.880Z,10.23
2018-10-04T16:41:15.447Z,10.73
2018-10-04T16:43:43.823Z,8.83
2018-10-04T16:46:11.862Z,11.23
2018-10-04T16:48:40.407Z,7.67
2018-10-04T16:51:12.196Z,5.73
2018-10-04T16:53:39.783Z,7.67
2018-10-04T16:56:07.420Z,3.27
2018-10-04T16:58:35.143Z,4.10
2018-10-04T17:01:05.211Z,3.67
2018-10-04T17:03:33.817Z,3.17
2018-10-04T17:06:01.429Z,6.07
2018-10-04T17:08:29.463Z,5.23
2018-10-04T17:10:57.141Z,5.20
2018-10-04T17:13:24.847Z,6.83
2018-10-04T17:15:52.804Z,6.80
2018-10-04T17:18:20.539Z,6.30
2018-10-04T17:20:48.267Z,5.60
2018-10-04T17:23:15.807Z,7.30
2018-10-04T17:25:44.112Z,7.27
2018-10-04T17:28:11.679Z,6.27
2018-10-04T17:30:39.655Z,6.17
2018-10-04T17:33:07.257Z,6.37
2018-10-04T17:35:34.880Z,8.83
2018-10-04T17:38:02.456Z,7.17
2018-10-04T17:40:30.040Z,6.67
2018-10-04T17:42:57.677Z,6.33
2018-10-04T17:45:25.308Z,7.37
2018-10-04T17:47:53.074Z,6.17
2018-10-04T17:50:20.506Z,3.20
2018-10-04T17:52:48.095Z,8.10
2018-10-04T17:55:15.662Z,6.97
2018-10-04T17:57:44.306Z,5.20
2018-10-04T18:00:14.307Z,6.07
2018-10-04T18:02:41.919Z,7.47
2018-10-04T18:05:10.266Z,6.43
2018-10-04T18:07:38.414Z,10.30
2018-10-04T18:10:06.101Z,7.50
2018-10-04T18:12:34.439Z,9.00
2018-10-04T18:15:02.079Z,8.83
2018-10-04T18:17:29.725Z,18.93
2018-10-04T18:19:57.323Z,17.27
2018-10-04T18:22:24.886Z,12.33
2018-10-04T18:24:52.492Z,11.67
2018-10-04T18:27:20.079Z,11.37
2018-10-04T18:29:48.671Z,11.03
2018-10-04T18:32:16.269Z,7.63
2018-10-04T18:34:44.968Z,10.63
2018-10-04T18:37:12.534Z,6.90
2018-10-04T18:39:40.103Z,9.83
2018-10-04T18:42:07.749Z,3.73
2018-10-04T18:44:35.352Z,6.10
2018-10-04T18:47:04.018Z,15.60
2018-10-04T18:49:31.755Z,5.87
2018-10-04T18:51:59.369Z,6.80
2018-10-04T18:54:27.084Z,6.80
2018-10-04T18:56:54.707Z,6.13
2018-10-04T18:59:22.332Z,8.63
2018-10-04T19:01:49.914Z,5.53
2018-10-04T19:04:17.584Z,9.37
2018-10-04T19:06:46.178Z,8.23
2018-10-04T19:09:13.783Z,5.87
2018-10-04T19:11:41.577Z,6.47
2018-10-04T19:14:09.259Z,7.33
2018-10-04T19:16:36.865Z,6.20
2018-10-04T19:19:04.897Z,8.67
2018-10-04T19:21:32.835Z,8.23
2018-10-04T19:24:00.406Z,9.03
2018-10-04T19:26:28.363Z,6.77
2018-10-04T19:28:56.601Z,7.07
2018-10-04T19:31:24.446Z,5.27
2018-10-04T19:33:52.057Z,6.37
2018-10-04T19:36:19.698Z,9.00
2018-10-04T19:38:47.306Z,4.40
2018-10-04T19:41:14.855Z,5.23
2018-10-04T19:43:42.525Z,5.43
2018-10-04T19:46:10.932Z,6.03
2018-10-04T19:48:38.741Z,3.33
2018-10-04T19:51:06.334Z,5.07
2018-10-04T19:53:34.086Z,7.77
2018-10-04T19:56:01.850Z,4.33
2018-10-04T19:58:29.603Z,6.40
2018-10-04T20:00:57.293Z,6.30
2018-10-04T20:03:25.134Z,6.90
2018-10-04T20:05:52.655Z,3.93
2018-10-04T20:08:20.342Z,4.13
2018-10-04T20:10:47.975Z,4.10
2018-10-04T20:13:15.588Z,4.67
2018-10-04T20:15:44.032Z,5.10
2018-10-04T20:18:11.622Z,6.00
2018-10-04T20:20:39.385Z,4.90
2018-10-04T20:23:06.990Z,5.80
2018-10-04T20:25:34.755Z,4.03
2018-10-04T20:28:02.372Z,5.87
2018-10-04T20:30:30.167Z,2.20
2018-10-04T20:32:57.794Z,4.10
2018-10-04T20:35:26.192Z,2.20
2018-10-04T20:37:53.815Z,3.40
2018-10-04T20:40:21.356Z,3.07
2018-10-04T20:42:52.104Z,3.10
2018-10-04T20:45:19.669Z,4.47
2018-10-04T20:47:47.610Z,4.30
2018-10-04T20:50:15.275Z,4.53
2018-10-04T20:52:43.657Z,2.70
2018-10-04T20:55:11.271Z,4.10
2018-10-04T20:57:39.100Z,3.83
2018-10-04T21:00:07.495Z,3.17
2018-10-04T21:02:35.142Z,4.20
2018-10-04T21:05:03.084Z,5.00
2018-10-04T21:07:30.663Z,3.93
2018-10-04T21:09:58.252Z,5.53
2018-10-04T21:12:26.028Z,6.30
2018-10-04T21:14:53.664Z,5.73
2018-10-04T21:17:21.187Z,5.17
2018-10-04T21:19:48.765Z,5.27
2018-10-04T21:22:16.448Z,3.27
2018-10-04T21:24:45.052Z,4.37
2018-10-04T21:27:12.567Z,4.40
2018-10-04T21:29:40.220Z,5.63
2018-10-04T21:32:07.938Z,3.27
2018-10-04T21:34:35.575Z,2.63
2018-10-04T21:37:03.435Z,2.43
2018-10-04T21:39:31.014Z,2.47
2018-10-04T21:41:58.626Z,6.27
2018-10-04T21:44:26.200Z,4.37
2018-10-04T21:46:53.819Z,2.50
2018-10-04T21:49:21.717Z,4.50
2018-10-04T21:51:49.277Z,4.27
2018-10-04T21:54:16.842Z,3.23
2018-10-04T21:56:45.626Z,6.30
2018-10-04T21:59:13.249Z,5.70
2018-10-04T22:01:40.835Z,3.10
2018-10-04T22:04:08.441Z,2.33
2018-10-04T22:06:36.098Z,4.00
2018-10-04T22:09:05.844Z,2.67
2018-10-04T22:11:33.584Z,4.37
2018-10-04T22:14:01.230Z,4.57
2018-10-04T22:16:28.881Z,4.30
2018-10-04T22:18:56.434Z,4.80
2018-10-04T22:21:24.038Z,7.13
2018-10-04T22:23:51.729Z,3.73
2018-10-04T22:26:19.301Z,2.37
2018-10-04T22:28:51.321Z,3.67
2018-10-04T22:31:18.876Z,2.93
2018-10-04T22:33:46.462Z,3.37
2018-10-04T22:36:14.036Z,5.20
2018-10-04T22:38:41.614Z,2.77
2018-10-04T22:41:09.437Z,4.23
2018-10-04T22:43:37.064Z,3.87
2018-10-04T22:46:04.789Z,3.87
2018-10-04T22:48:32.327Z,3.10
2018-10-04T22:50:59.964Z,2.27
2018-10-04T22:53:27.516Z,3.47
2018-10-04T22:55:55.106Z,4.53
2018-10-04T22:58:23.203Z,3.47
2018-10-04T23:00:50.813Z,2.10
2018-10-04T23:03:18.368Z,4.30
2018-10-04T23:05:45.923Z,2.80
2018-10-04T23:08:13.531Z,4.20
2018-10-04T23:10:41.799Z,4.37
2018-10-04T23:13:09.514Z,2.23
2018-10-04T23:15:37.067Z,4.50
2018-10-04T23:18:04.827Z,2.37
2018-10-04T23:20:32.375Z,2.20
2018-10-04T23:22:59.984Z,7.43
2018-10-04T23:25:27.798Z,3.40
2018-10-04T23:27:55.386Z,4.20
2018-10-04T23:30:23.018Z,2.07
2018-10-04T23:32:50.616Z,3.63
2018-10-04T23:35:18.210Z,3.00
2018-10-04T23:37:46.265Z,2.83
2018-10-04T23:40:13.918Z,3.83
2018-10-04T23:42:41.477Z,3.10
2018-10-04T23:45:09.036Z,5.00
2018-10-04T23:47:36.849Z,5.30
2018-10-04T23:50:04.441Z,2.90
2018-10-04T23:52:32.038Z,3.23
2018-10-04T23:54:59.555Z,4.00
2018-10-04T23:57:27.099Z,4.17
2018-10-04T23:59:54.667Z,2.40
